FNBG/BUG METAR and TAF weather

Enter ICAO airport designator
Station Type Date Time Source
FNBG METAR 2018/01/16 08:00 UTC NOAA

FNBG 160800Z 12006KT 9999 FEW020 BKN090 27/21 Q1014


Station Type Date Time Source
FNBG Decoded METAR 2018/01/16 08:00 UTC NOAA

Monbaca Benguela , Angola (FNBG) 12-35S 013-25E 4M
Jan 16, 2018 - 03:00 AM EST / 2018.01.16 0800 UTC
Wind: from the ESE (120 degrees) at 7 MPH (6 KT):0
Visibility: greater than 7 mile(s):0
Sky conditions: mostly cloudy
Temperature: 80 F (27 C)
Dew Point: 69 F (21 C)
Relative Humidity: 69%
Pressure (altimeter): 29.94 in. Hg (1014 hPa)
ob: FNBG 160800Z 12006KT 9999 FEW020 BKN090 27/21 Q1014
cycle: 8

Station Type Date Time Source
FNBG TAF 2018/01/15 12:45 UTC NOAA

TAF FNBG 151045Z 1512/1524 32008KT 9999 SCT015 BKN020 PROB30
TEMPO 1514/1518 26005G15KT FEW020 FEW025CB SCT050
BECMG 1518/1520 20008KT FEW018 BKN050


Example: see airport list